createdAt,value
2022-08-06T00:03:36.352Z,5.30
2022-08-06T00:08:44.494Z,5.87
2022-08-06T00:13:55.568Z,6.00
2022-08-06T00:19:05.714Z,6.07
2022-08-06T00:24:25.215Z,6.17
2022-08-06T00:29:32.404Z,5.67
2022-08-06T00:34:36.048Z,5.90
2022-08-06T00:39:44.256Z,5.83
2022-08-06T00:44:53.788Z,6.17
2022-08-06T00:50:02.499Z,7.03
2022-08-06T00:55:17.579Z,8.43
2022-08-06T01:00:30.272Z,7.33
2022-08-06T01:06:04.869Z,9.07
2022-08-06T01:10:42.417Z,8.03
2022-08-06T01:16:08.385Z,8.83
2022-08-06T01:26:25.092Z,9.57
2022-08-06T01:31:38.784Z,9.73
2022-08-06T01:36:50.551Z,10.10
2022-08-06T01:41:59.464Z,9.80
2022-08-06T01:47:16.912Z,8.97
2022-08-06T01:52:29.862Z,10.07
2022-08-06T01:58:17.823Z,9.97
2022-08-06T02:02:48.730Z,10.07
2022-08-06T02:08:38.231Z,9.30
2022-08-06T02:13:09.197Z,11.17
2022-08-06T02:18:35.376Z,11.37
2022-08-06T02:23:32.864Z,13.20
2022-08-06T02:28:39.970Z,13.73
2022-08-06T02:34:02.244Z,16.23
2022-08-06T02:49:40.435Z,11.87
2022-08-06T02:54:53.098Z,12.57
2022-08-06T03:00:06.139Z,11.00
2022-08-06T03:05:16.797Z,10.43
2022-08-06T03:10:30.476Z,10.63
2022-08-06T03:15:58.283Z,9.27
2022-08-06T03:20:47.139Z,9.67
2022-08-06T03:25:55.982Z,8.80
2022-08-06T03:31:04.727Z,9.83
2022-08-06T03:36:17.265Z,8.50
2022-08-06T03:41:23.061Z,8.43
2022-08-06T03:46:36.100Z,7.23
2022-08-06T03:51:52.576Z,5.57
2022-08-06T03:56:56.825Z,5.00
2022-08-06T04:02:05.460Z,4.97
2022-08-06T04:07:16.881Z,3.87
2022-08-06T04:12:58.633Z,3.93
2022-08-06T04:17:40.979Z,3.87
2022-08-06T04:22:57.250Z,3.50
2022-08-06T04:27:59.888Z,2.90
2022-08-06T04:33:09.232Z,2.40
2022-08-06T04:38:27.775Z,2.20
2022-08-06T04:43:38.627Z,2.70
2022-08-06T04:48:47.446Z,3.73
2022-08-06T04:53:57.638Z,4.53
2022-08-06T04:59:00.897Z,4.90
2022-08-06T05:04:15.444Z,4.83
2022-08-06T05:09:23.513Z,3.10
2022-08-06T05:14:35.632Z,2.60
2022-08-06T05:19:46.947Z,2.07
2022-08-06T05:25:03.099Z,2.60
2022-08-06T05:30:06.150Z,3.50
2022-08-06T05:35:17.942Z,3.30
2022-08-06T05:40:34.526Z,3.80
2022-08-06T05:45:37.388Z,4.20
2022-08-06T05:50:48.427Z,4.10
2022-08-06T05:55:59.114Z,4.73
2022-08-06T06:01:13.929Z,4.30
2022-08-06T06:06:19.260Z,5.27
2022-08-06T06:11:55.535Z,4.80
2022-08-06T06:16:41.990Z,5.10
2022-08-06T06:21:54.119Z,5.47
2022-08-06T06:27:35.874Z,5.33
2022-08-06T06:32:30.509Z,5.90
2022-08-06T06:42:46.316Z,5.57
2022-08-06T06:47:59.553Z,5.70
2022-08-06T06:53:10.570Z,5.33
2022-08-06T06:58:24.540Z,6.00
2022-08-06T07:03:42.763Z,5.80
2022-08-06T07:08:46.926Z,5.60
2022-08-06T07:13:58.936Z,6.63
2022-08-06T07:19:10.761Z,5.70
2022-08-06T07:24:36.022Z,5.87
2022-08-06T07:29:49.737Z,6.13
2022-08-06T07:34:38.880Z,6.43
2022-08-06T07:39:48.640Z,5.97
2022-08-06T07:45:00.302Z,6.80
2022-08-06T07:50:08.783Z,5.73
2022-08-06T07:55:19.361Z,6.40
2022-08-06T08:00:28.730Z,6.03
2022-08-06T08:05:39.859Z,5.37
2022-08-06T08:10:50.320Z,6.70
2022-08-06T08:15:59.556Z,6.40
2022-08-06T08:21:08.240Z,5.13
2022-08-06T08:26:21.883Z,4.37
2022-08-06T08:31:32.371Z,4.60
2022-08-06T08:36:42.312Z,4.97
2022-08-06T08:41:53.884Z,5.17
2022-08-06T08:47:02.781Z,5.27
2022-08-06T08:52:18.083Z,4.47
2022-08-06T08:59:02.215Z,4.67
2022-08-06T09:02:49.809Z,4.47
2022-08-06T09:08:01.076Z,4.60
2022-08-06T09:13:01.243Z,4.80
2022-08-06T09:18:25.313Z,4.70
2022-08-06T09:23:19.759Z,4.67
2022-08-06T09:28:32.005Z,3.90
2022-08-06T09:34:29.975Z,3.57
2022-08-06T09:38:55.476Z,3.33
2022-08-06T09:44:07.332Z,3.47
2022-08-06T09:49:48.917Z,3.60
2022-08-06T09:54:30.963Z,3.60
2022-08-06T10:05:19.341Z,3.50
2022-08-06T10:10:33.228Z,2.30
2022-08-06T10:15:57.966Z,2.33
2022-08-06T10:20:46.575Z,2.40
2022-08-06T10:25:56.882Z,2.30
2022-08-06T10:31:10.224Z,1.90
2022-08-06T10:36:24.685Z,2.37
2022-08-06T10:42:00.808Z,2.70
2022-08-06T10:46:49.629Z,2.47
2022-08-06T10:51:59.034Z,2.27
2022-08-06T10:57:22.555Z,2.20
2022-08-06T11:02:27.616Z,2.00
2022-08-06T11:08:08.258Z,1.97
2022-08-06T11:18:12.173Z,2.20
2022-08-06T11:23:52.156Z,1.33
2022-08-06T11:33:59.800Z,1.03
2022-08-06T11:39:17.693Z,1.33
2022-08-06T11:44:21.494Z,1.00
2022-08-06T11:49:32.245Z,1.20
2022-08-06T11:54:45.276Z,0.90
2022-08-06T12:05:23.380Z,0.97
2022-08-06T12:10:31.442Z,1.00
2022-08-06T12:15:59.567Z,1.03
2022-08-06T12:20:54.456Z,0.90
2022-08-06T12:26:01.119Z,0.60
2022-08-06T12:31:36.364Z,0.93
2022-08-06T12:36:32.195Z,0.80
2022-08-06T12:41:45.681Z,0.80
2022-08-06T12:46:44.845Z,0.87
2022-08-06T12:51:54.696Z,0.97
2022-08-06T12:57:07.848Z,0.77
2022-08-06T13:02:18.357Z,1.20
2022-08-06T13:07:25.139Z,1.50
2022-08-06T13:14:02.464Z,1.23
2022-08-06T13:17:57.752Z,1.10
2022-08-06T13:22:58.945Z,1.10
2022-08-06T13:28:10.442Z,1.10
2022-08-06T13:33:23.225Z,0.80
2022-08-06T13:38:33.365Z,0.90
2022-08-06T13:43:54.351Z,0.80
2022-08-06T13:48:58.326Z,1.00
2022-08-06T13:54:15.628Z,0.97
2022-08-06T13:59:39.801Z,0.90
2022-08-06T14:04:33.184Z,0.83
2022-08-06T14:10:07.492Z,0.80
2022-08-06T14:14:52.372Z,0.83
2022-08-06T14:20:17.575Z,1.00
2022-08-06T14:25:11.143Z,0.83
2022-08-06T14:30:31.762Z,0.80
2022-08-06T14:35:29.595Z,0.80
2022-08-06T14:40:59.701Z,1.00
2022-08-06T14:45:50.755Z,0.77
2022-08-06T14:50:59.408Z,0.80
2022-08-06T14:56:08.677Z,0.90
2022-08-06T15:01:17.732Z,1.00
2022-08-06T15:06:29.791Z,1.10
2022-08-06T15:12:00.151Z,1.20
2022-08-06T15:17:01.443Z,1.00
2022-08-06T15:22:00.159Z,0.77
2022-08-06T15:27:09.344Z,0.93
2022-08-06T15:32:31.252Z,0.90
2022-08-06T15:37:54.309Z,0.97
2022-08-06T15:42:48.775Z,0.90
2022-08-06T15:47:59.840Z,0.80
2022-08-06T15:53:22.588Z,0.90
2022-08-06T15:58:28.314Z,0.70
2022-08-06T16:03:28.615Z,1.00
2022-08-06T16:08:42.484Z,0.60
2022-08-06T16:13:54.653Z,0.90
2022-08-06T16:18:55.800Z,0.70
2022-08-06T16:24:05.832Z,0.50
2022-08-06T16:29:13.813Z,0.40
2022-08-06T16:34:25.088Z,0.60
2022-08-06T16:39:36.692Z,0.50
2022-08-06T16:44:56.648Z,0.53
2022-08-06T16:55:08.207Z,0.50
2022-08-06T17:01:00.048Z,0.40
2022-08-06T17:05:46.207Z,0.50
2022-08-06T17:10:39.574Z,0.43
2022-08-06T17:15:53.503Z,0.50
2022-08-06T17:20:56.381Z,0.60
2022-08-06T17:26:04.941Z,0.60
2022-08-06T17:31:57.887Z,0.33
2022-08-06T17:41:39.240Z,0.43
2022-08-06T17:46:48.127Z,0.60
2022-08-06T17:51:55.772Z,0.60
2022-08-06T17:57:05.661Z,0.50
2022-08-06T18:02:15.821Z,0.70
2022-08-06T18:08:08.127Z,1.10
2022-08-06T18:12:37.376Z,1.47
2022-08-06T18:18:04.454Z,1.17
2022-08-06T18:22:59.077Z,1.07
2022-08-06T18:28:07.515Z,1.40
2022-08-06T18:33:16.416Z,0.97
2022-08-06T18:38:24.395Z,1.50
2022-08-06T18:43:54.041Z,1.30
2022-08-06T18:48:42.871Z,1.37
2022-08-06T18:54:05.162Z,1.40
2022-08-06T18:59:23.709Z,1.10
2022-08-06T19:04:21.652Z,1.10
2022-08-06T19:09:34.235Z,0.90
2022-08-06T19:14:49.077Z,0.97
2022-08-06T19:20:19.158Z,1.00
2022-08-06T19:25:15.607Z,0.77
2022-08-06T19:30:39.203Z,0.80
2022-08-06T19:36:03.111Z,0.83
2022-08-06T19:40:46.514Z,0.90
2022-08-06T19:46:29.764Z,0.73
2022-08-06T19:51:15.312Z,0.97
2022-08-06T19:56:19.956Z,1.10
2022-08-06T20:01:36.029Z,1.00
2022-08-06T20:06:54.647Z,0.93
2022-08-06T20:12:03.526Z,1.00
2022-08-06T20:16:58.599Z,1.00
2022-08-06T20:22:11.213Z,1.20
2022-08-06T20:27:37.974Z,1.53
2022-08-06T20:32:30.616Z,2.97
2022-08-06T20:37:43.739Z,2.60
2022-08-06T20:42:50.910Z,2.67
2022-08-06T20:47:59.770Z,2.53
2022-08-06T20:53:12.113Z,2.13
2022-08-06T20:58:22.453Z,1.77
2022-08-06T21:05:15.309Z,2.23
2022-08-06T21:08:46.857Z,2.40
2022-08-06T21:14:04.061Z,2.10
2022-08-06T21:19:06.949Z,1.90
2022-08-06T21:24:16.010Z,1.97
2022-08-06T21:30:09.685Z,1.40
2022-08-06T21:34:37.052Z,1.27
2022-08-06T21:39:56.199Z,1.30
2022-08-06T21:44:59.289Z,1.30
2022-08-06T21:50:25.345Z,1.80
2022-08-06T21:56:36.575Z,2.10
2022-08-06T22:00:42.290Z,2.03
2022-08-06T22:06:21.287Z,1.65
2022-08-06T22:12:39.378Z,1.50
2022-08-06T22:16:23.782Z,1.53
2022-08-06T22:21:41.666Z,1.40
2022-08-06T22:26:39.139Z,1.57
2022-08-06T22:31:55.732Z,1.50
2022-08-06T22:36:59.237Z,1.60
2022-08-06T22:42:09.376Z,1.60
2022-08-06T22:47:18.358Z,1.77
2022-08-06T22:52:59.229Z,1.90
2022-08-06T22:58:05.010Z,1.80
2022-08-06T23:02:48.686Z,2.00
2022-08-06T23:07:57.148Z,1.80
2022-08-06T23:13:07.612Z,1.27
2022-08-06T23:18:22.377Z,1.60
2022-08-06T23:23:29.069Z,1.33
2022-08-06T23:28:36.516Z,1.20
2022-08-06T23:33:50.168Z,1.33
2022-08-06T23:38:58.634Z,1.40
2022-08-06T23:44:08.119Z,1.60
2022-08-06T23:49:18.627Z,1.20
2022-08-06T23:54:29.166Z,1.50
2022-08-06T23:59:44.628Z,1.50
